sensor_id;sensor_type;location;lat;lon;timestamp;temperature;humidity
21906;DHT22;11117;48.644;9.006;2023-10-13T00:01:09;18.60;97.60
21906;DHT22;11117;48.644;9.006;2023-10-13T00:03:34;18.50;97.60
21906;DHT22;11117;48.644;9.006;2023-10-13T00:06:00;18.50;97.60
21906;DHT22;11117;48.644;9.006;2023-10-13T00:08:26;18.40;97.60
21906;DHT22;11117;48.644;9.006;2023-10-13T00:10:51;18.40;97.60
21906;DHT22;11117;48.644;9.006;2023-10-13T00:13:17;18.30;97.70
21906;DHT22;11117;48.644;9.006;2023-10-13T00:15:44;18.20;97.60
21906;DHT22;11117;48.644;9.006;2023-10-13T00:18:10;18.20;97.60
21906;DHT22;11117;48.644;9.006;2023-10-13T00:20:35;18.10;97.80
21906;DHT22;11117;48.644;9.006;2023-10-13T00:23:01;18.00;97.80
21906;DHT22;11117;48.644;9.006;2023-10-13T00:25:27;18.00;97.90
21906;DHT22;11117;48.644;9.006;2023-10-13T00:27:52;17.90;98.00
21906;DHT22;11117;48.644;9.006;2023-10-13T00:30:22;17.70;98.10
21906;DHT22;11117;48.644;9.006;2023-10-13T00:32:52;17.50;98.50
21906;DHT22;11117;48.644;9.006;2023-10-13T00:35:23;17.40;98.80
21906;DHT22;11117;48.644;9.006;2023-10-13T00:37:49;17.30;99.30
21906;DHT22;11117;48.644;9.006;2023-10-13T00:40:14;17.20;99.50
21906;DHT22;11117;48.644;9.006;2023-10-13T00:42:40;17.30;99.70
21906;DHT22;11117;48.644;9.006;2023-10-13T00:45:06;17.30;99.80
21906;DHT22;11117;48.644;9.006;2023-10-13T00:47:31;17.20;99.90
21906;DHT22;11117;48.644;9.006;2023-10-13T00:49:57;17.10;99.90
21906;DHT22;11117;48.644;9.006;2023-10-13T00:52:23;17.10;99.90
21906;DHT22;11117;48.644;9.006;2023-10-13T00:54:49;17.00;99.90
21906;DHT22;11117;48.644;9.006;2023-10-13T00:57:15;16.90;99.90
21906;DHT22;11117;48.644;9.006;2023-10-13T00:59:41;16.80;99.90
21906;DHT22;11117;48.644;9.006;2023-10-13T01:02:07;16.90;99.90
21906;DHT22;11117;48.644;9.006;2023-10-13T01:04:32;16.80;99.90
21906;DHT22;11117;48.644;9.006;2023-10-13T01:06:58;16.70;99.90
21906;DHT22;11117;48.644;9.006;2023-10-13T01:09:23;16.70;99.90
21906;DHT22;11117;48.644;9.006;2023-10-13T01:11:50;16.70;99.90
21906;DHT22;11117;48.644;9.006;2023-10-13T01:14:15;16.60;99.90
21906;DHT22;11117;48.644;9.006;2023-10-13T01:16:41;16.50;99.90
21906;DHT22;11117;48.644;9.006;2023-10-13T01:19:06;16.50;99.90
21906;DHT22;11117;48.644;9.006;2023-10-13T01:21:32;16.40;99.90
21906;DHT22;11117;48.644;9.006;2023-10-13T01:23:58;16.30;99.90
21906;DHT22;11117;48.644;9.006;2023-10-13T01:26:23;16.40;99.90
21906;DHT22;11117;48.644;9.006;2023-10-13T01:28:49;16.40;99.90
21906;DHT22;11117;48.644;9.006;2023-10-13T01:31:15;16.30;99.90
21906;DHT22;11117;48.644;9.006;2023-10-13T01:33:40;16.30;99.90
21906;DHT22;11117;48.644;9.006;2023-10-13T01:36:06;16.30;99.90
21906;DHT22;11117;48.644;9.006;2023-10-13T01:38:31;16.20;99.90
21906;DHT22;11117;48.644;9.006;2023-10-13T01:40:57;16.10;99.90
21906;DHT22;11117;48.644;9.006;2023-10-13T01:43:22;16.10;99.90
21906;DHT22;11117;48.644;9.006;2023-10-13T01:45:48;16.10;99.90
21906;DHT22;11117;48.644;9.006;2023-10-13T01:48:14;16.00;99.90
21906;DHT22;11117;48.644;9.006;2023-10-13T01:50:39;16.00;99.90
21906;DHT22;11117;48.644;9.006;2023-10-13T01:53:05;15.90;99.90
21906;DHT22;11117;48.644;9.006;2023-10-13T01:55:31;15.90;99.90
21906;DHT22;11117;48.644;9.006;2023-10-13T01:57:56;15.90;99.90
21906;DHT22;11117;48.644;9.006;2023-10-13T02:00:22;15.90;99.90
21906;DHT22;11117;48.644;9.006;2023-10-13T02:02:47;15.90;99.90
21906;DHT22;11117;48.644;9.006;2023-10-13T02:05:13;15.80;99.90
21906;DHT22;11117;48.644;9.006;2023-10-13T02:07:39;15.80;99.90
21906;DHT22;11117;48.644;9.006;2023-10-13T02:10:05;15.80;99.90
21906;DHT22;11117;48.644;9.006;2023-10-13T02:12:30;15.80;99.90
21906;DHT22;11117;48.644;9.006;2023-10-13T02:14:56;15.80;99.90
21906;DHT22;11117;48.644;9.006;2023-10-13T02:17:22;15.80;99.90
21906;DHT22;11117;48.644;9.006;2023-10-13T02:19:47;15.80;99.90
21906;DHT22;11117;48.644;9.006;2023-10-13T02:22:13;15.70;99.90
21906;DHT22;11117;48.644;9.006;2023-10-13T02:24:39;15.70;99.90
21906;DHT22;11117;48.644;9.006;2023-10-13T02:27:05;15.70;99.90
21906;DHT22;11117;48.644;9.006;2023-10-13T02:29:30;15.60;99.90
21906;DHT22;11117;48.644;9.006;2023-10-13T02:31:56;15.60;99.90
21906;DHT22;11117;48.644;9.006;2023-10-13T02:34:22;15.70;99.90
21906;DHT22;11117;48.644;9.006;2023-10-13T02:36:47;15.70;99.90
21906;DHT22;11117;48.644;9.006;2023-10-13T02:39:13;15.70;99.90
21906;DHT22;11117;48.644;9.006;2023-10-13T02:41:39;15.70;99.90
21906;DHT22;11117;48.644;9.006;2023-10-13T02:44:06;15.60;99.90
21906;DHT22;11117;48.644;9.006;2023-10-13T02:46:33;15.60;99.90
21906;DHT22;11117;48.644;9.006;2023-10-13T02:48:58;15.60;99.90
21906;DHT22;11117;48.644;9.006;2023-10-13T02:51:24;15.60;99.90
21906;DHT22;11117;48.644;9.006;2023-10-13T02:53:49;15.70;99.90
21906;DHT22;11117;48.644;9.006;2023-10-13T02:56:15;15.60;99.90
21906;DHT22;11117;48.644;9.006;2023-10-13T02:58:41;15.60;99.90
21906;DHT22;11117;48.644;9.006;2023-10-13T03:01:08;15.60;99.90
21906;DHT22;11117;48.644;9.006;2023-10-13T03:03:33;15.60;99.90
21906;DHT22;11117;48.644;9.006;2023-10-13T03:05:59;15.60;99.90
21906;DHT22;11117;48.644;9.006;2023-10-13T03:08:24;15.60;99.90
21906;DHT22;11117;48.644;9.006;2023-10-13T03:10:50;15.60;99.90
21906;DHT22;11117;48.644;9.006;2023-10-13T03:13:15;15.60;99.90
21906;DHT22;11117;48.644;9.006;2023-10-13T03:15:41;15.60;99.90
21906;DHT22;11117;48.644;9.006;2023-10-13T03:18:06;15.50;99.90
21906;DHT22;11117;48.644;9.006;2023-10-13T03:20:32;15.50;99.90
21906;DHT22;11117;48.644;9.006;2023-10-13T03:22:58;15.50;99.90
21906;DHT22;11117;48.644;9.006;2023-10-13T03:25:24;15.50;99.90
21906;DHT22;11117;48.644;9.006;2023-10-13T03:27:51;15.50;99.90
21906;DHT22;11117;48.644;9.006;2023-10-13T03:30:20;15.40;99.90
21906;DHT22;11117;48.644;9.006;2023-10-13T03:32:45;15.40;99.90
21906;DHT22;11117;48.644;9.006;2023-10-13T03:35:11;15.40;99.90
21906;DHT22;11117;48.644;9.006;2023-10-13T03:37:36;15.40;99.90
21906;DHT22;11117;48.644;9.006;2023-10-13T03:40:03;15.40;99.90
21906;DHT22;11117;48.644;9.006;2023-10-13T03:42:29;15.40;99.90
21906;DHT22;11117;48.644;9.006;2023-10-13T03:44:54;15.40;99.90
21906;DHT22;11117;48.644;9.006;2023-10-13T03:47:20;15.40;99.90
21906;DHT22;11117;48.644;9.006;2023-10-13T03:49:45;15.40;99.90
21906;DHT22;11117;48.644;9.006;2023-10-13T03:52:11;15.40;99.90
21906;DHT22;11117;48.644;9.006;2023-10-13T03:54:37;15.40;99.90
21906;DHT22;11117;48.644;9.006;2023-10-13T03:57:02;15.40;99.90
21906;DHT22;11117;48.644;9.006;2023-10-13T03:59:28;15.30;99.90
21906;DHT22;11117;48.644;9.006;2023-10-13T04:01:53;15.30;99.90
21906;DHT22;11117;48.644;9.006;2023-10-13T04:04:19;15.30;99.90
21906;DHT22;11117;48.644;9.006;2023-10-13T04:06:45;15.30;99.90
21906;DHT22;11117;48.644;9.006;2023-10-13T04:09:14;15.20;99.90
21906;DHT22;11117;48.644;9.006;2023-10-13T04:11:40;15.20;99.90
21906;DHT22;11117;48.644;9.006;2023-10-13T04:14:05;15.20;99.90
21906;DHT22;11117;48.644;9.006;2023-10-13T04:16:31;15.10;99.90
21906;DHT22;11117;48.644;9.006;2023-10-13T04:18:56;15.10;99.90
21906;DHT22;11117;48.644;9.006;2023-10-13T04:21:22;15.10;99.90
21906;DHT22;11117;48.644;9.006;2023-10-13T04:23:48;15.10;99.90
21906;DHT22;11117;48.644;9.006;2023-10-13T04:26:13;15.00;99.90
21906;DHT22;11117;48.644;9.006;2023-10-13T04:28:39;15.00;99.90
21906;DHT22;11117;48.644;9.006;2023-10-13T04:31:04;15.00;99.90
21906;DHT22;11117;48.644;9.006;2023-10-13T04:33:32;14.90;99.90
21906;DHT22;11117;48.644;9.006;2023-10-13T04:36:04;14.90;99.90
21906;DHT22;11117;48.644;9.006;2023-10-13T04:38:30;14.90;99.90
21906;DHT22;11117;48.644;9.006;2023-10-13T04:40:56;14.90;99.90
21906;DHT22;11117;48.644;9.006;2023-10-13T04:43:21;14.90;99.90
21906;DHT22;11117;48.644;9.006;2023-10-13T04:45:47;14.90;99.90
21906;DHT22;11117;48.644;9.006;2023-10-13T04:48:12;14.90;99.90
21906;DHT22;11117;48.644;9.006;2023-10-13T04:50:38;14.90;99.90
21906;DHT22;11117;48.644;9.006;2023-10-13T04:53:03;14.90;99.90
21906;DHT22;11117;48.644;9.006;2023-10-13T04:55:29;14.90;99.90
21906;DHT22;11117;48.644;9.006;2023-10-13T04:57:54;14.90;99.90
21906;DHT22;11117;48.644;9.006;2023-10-13T05:00:23;14.90;99.90
21906;DHT22;11117;48.644;9.006;2023-10-13T05:02:49;14.90;99.90
21906;DHT22;11117;48.644;9.006;2023-10-13T05:05:15;15.00;99.90
21906;DHT22;11117;48.644;9.006;2023-10-13T05:07:41;15.00;99.90
21906;DHT22;11117;48.644;9.006;2023-10-13T05:10:07;15.00;99.90
21906;DHT22;11117;48.644;9.006;2023-10-13T05:12:32;15.00;99.90
21906;DHT22;11117;48.644;9.006;2023-10-13T05:14:58;14.90;99.90
21906;DHT22;11117;48.644;9.006;2023-10-13T05:17:23;14.90;99.90
21906;DHT22;11117;48.644;9.006;2023-10-13T05:19:49;14.90;99.90
21906;DHT22;11117;48.644;9.006;2023-10-13T05:22:14;14.90;99.90
21906;DHT22;11117;48.644;9.006;2023-10-13T05:24:40;14.90;99.90
21906;DHT22;11117;48.644;9.006;2023-10-13T05:27:05;14.90;99.90
21906;DHT22;11117;48.644;9.006;2023-10-13T05:29:31;14.90;99.90
21906;DHT22;11117;48.644;9.006;2023-10-13T05:31:56;14.90;99.90
21906;DHT22;11117;48.644;9.006;2023-10-13T05:34:22;14.80;99.90
21906;DHT22;11117;48.644;9.006;2023-10-13T05:36:47;14.80;99.90
21906;DHT22;11117;48.644;9.006;2023-10-13T05:39:13;14.80;99.90
21906;DHT22;11117;48.644;9.006;2023-10-13T05:41:38;14.80;99.90
21906;DHT22;11117;48.644;9.006;2023-10-13T05:44:04;14.90;99.90
21906;DHT22;11117;48.644;9.006;2023-10-13T05:46:30;14.90;99.90
21906;DHT22;11117;48.644;9.006;2023-10-13T05:48:55;14.90;99.90
21906;DHT22;11117;48.644;9.006;2023-10-13T05:51:21;14.90;99.90
21906;DHT22;11117;48.644;9.006;2023-10-13T05:53:46;14.90;99.90
21906;DHT22;11117;48.644;9.006;2023-10-13T05:56:12;14.90;99.90
21906;DHT22;11117;48.644;9.006;2023-10-13T05:58:37;15.10;99.90
21906;DHT22;11117;48.644;9.006;2023-10-13T06:01:03;15.10;99.90
21906;DHT22;11117;48.644;9.006;2023-10-13T06:03:28;15.20;99.90
21906;DHT22;11117;48.644;9.006;2023-10-13T06:05:54;15.30;99.90
21906;DHT22;11117;48.644;9.006;2023-10-13T06:08:19;15.40;99.90
21906;DHT22;11117;48.644;9.006;2023-10-13T06:10:47;15.50;99.90
21906;DHT22;11117;48.644;9.006;2023-10-13T06:13:12;15.50;99.90
21906;DHT22;11117;48.644;9.006;2023-10-13T06:15:38;15.60;99.90
21906;DHT22;11117;48.644;9.006;2023-10-13T06:18:03;15.60;99.90
21906;DHT22;11117;48.644;9.006;2023-10-13T06:20:29;15.60;99.90
21906;DHT22;11117;48.644;9.006;2023-10-13T06:22:54;15.60;99.90
21906;DHT22;11117;48.644;9.006;2023-10-13T06:25:22;15.60;99.90
21906;DHT22;11117;48.644;9.006;2023-10-13T06:27:47;15.70;99.90
21906;DHT22;11117;48.644;9.006;2023-10-13T06:30:13;15.70;99.90
21906;DHT22;11117;48.644;9.006;2023-10-13T06:32:38;15.80;99.90
21906;DHT22;11117;48.644;9.006;2023-10-13T06:35:04;15.80;99.90
21906;DHT22;11117;48.644;9.006;2023-10-13T06:37:30;15.90;99.90
21906;DHT22;11117;48.644;9.006;2023-10-13T06:39:57;15.90;99.90
21906;DHT22;11117;48.644;9.006;2023-10-13T06:42:23;15.90;99.90
21906;DHT22;11117;48.644;9.006;2023-10-13T06:44:49;16.00;99.90
21906;DHT22;11117;48.644;9.006;2023-10-13T06:47:14;15.90;99.90
21906;DHT22;11117;48.644;9.006;2023-10-13T06:49:40;16.00;99.90
21906;DHT22;11117;48.644;9.006;2023-10-13T06:52:06;16.10;99.90
21906;DHT22;11117;48.644;9.006;2023-10-13T06:54:33;16.10;99.90
21906;DHT22;11117;48.644;9.006;2023-10-13T06:56:59;16.20;99.90
21906;DHT22;11117;48.644;9.006;2023-10-13T06:59:24;16.20;99.90
21906;DHT22;11117;48.644;9.006;2023-10-13T07:01:50;16.30;99.90
21906;DHT22;11117;48.644;9.006;2023-10-13T07:04:15;16.30;99.90
21906;DHT22;11117;48.644;9.006;2023-10-13T07:06:42;16.40;99.90
21906;DHT22;11117;48.644;9.006;2023-10-13T07:09:08;16.40;99.90
21906;DHT22;11117;48.644;9.006;2023-10-13T07:11:33;16.50;99.90
21906;DHT22;11117;48.644;9.006;2023-10-13T07:14:03;16.60;99.90
21906;DHT22;11117;48.644;9.006;2023-10-13T07:16:28;16.60;99.90
21906;DHT22;11117;48.644;9.006;2023-10-13T07:18:54;16.70;99.90
21906;DHT22;11117;48.644;9.006;2023-10-13T07:21:20;16.80;99.90
21906;DHT22;11117;48.644;9.006;2023-10-13T07:23:45;16.90;99.90
21906;DHT22;11117;48.644;9.006;2023-10-13T07:26:11;17.00;99.90
21906;DHT22;11117;48.644;9.006;2023-10-13T07:28:36;17.20;99.90
21906;DHT22;11117;48.644;9.006;2023-10-13T07:31:03;17.20;99.90
21906;DHT22;11117;48.644;9.006;2023-10-13T07:33:28;17.40;99.90
21906;DHT22;11117;48.644;9.006;2023-10-13T07:36:04;17.50;99.90
21906;DHT22;11117;48.644;9.006;2023-10-13T07:38:30;17.60;99.90
21906;DHT22;11117;48.644;9.006;2023-10-13T07:40:56;17.60;99.90
21906;DHT22;11117;48.644;9.006;2023-10-13T07:43:21;17.70;99.90
21906;DHT22;11117;48.644;9.006;2023-10-13T07:45:47;17.70;99.90
21906;DHT22;11117;48.644;9.006;2023-10-13T07:48:13;17.70;99.90
21906;DHT22;11117;48.644;9.006;2023-10-13T07:50:39;17.70;99.90
21906;DHT22;11117;48.644;9.006;2023-10-13T07:53:05;17.80;99.90
21906;DHT22;11117;48.644;9.006;2023-10-13T07:55:31;17.80;99.90
21906;DHT22;11117;48.644;9.006;2023-10-13T07:57:57;18.00;99.90
21906;DHT22;11117;48.644;9.006;2023-10-13T08:00:24;18.10;99.90
21906;DHT22;11117;48.644;9.006;2023-10-13T08:02:58;18.20;99.90
21906;DHT22;11117;48.644;9.006;2023-10-13T08:05:24;18.40;99.90
21906;DHT22;11117;48.644;9.006;2023-10-13T08:07:51;18.50;99.90
21906;DHT22;11117;48.644;9.006;2023-10-13T08:10:19;18.50;99.90
21906;DHT22;11117;48.644;9.006;2023-10-13T08:12:45;18.60;99.90
21906;DHT22;11117;48.644;9.006;2023-10-13T08:15:10;18.60;99.90
21906;DHT22;11117;48.644;9.006;2023-10-13T08:17:36;18.70;99.90
21906;DHT22;11117;48.644;9.006;2023-10-13T08:20:01;18.80;99.90
21906;DHT22;11117;48.644;9.006;2023-10-13T08:22:27;19.10;99.90
21906;DHT22;11117;48.644;9.006;2023-10-13T08:24:53;19.10;99.90
21906;DHT22;11117;48.644;9.006;2023-10-13T08:27:20;19.30;99.90
21906;DHT22;11117;48.644;9.006;2023-10-13T08:29:47;19.40;99.90
21906;DHT22;11117;48.644;9.006;2023-10-13T08:32:12;19.50;99.90
21906;DHT22;11117;48.644;9.006;2023-10-13T08:34:38;19.60;99.90
21906;DHT22;11117;48.644;9.006;2023-10-13T08:37:06;19.80;99.80
21906;DHT22;11117;48.644;9.006;2023-10-13T08:39:32;20.00;99.90
21906;DHT22;11117;48.644;9.006;2023-10-13T08:41:58;20.20;99.50
21906;DHT22;11117;48.644;9.006;2023-10-13T08:44:26;20.40;99.90
21906;DHT22;11117;48.644;9.006;2023-10-13T08:46:54;20.50;99.90
21906;DHT22;11117;48.644;9.006;2023-10-13T08:49:20;20.70;99.90
21906;DHT22;11117;48.644;9.006;2023-10-13T08:51:46;20.80;99.70
21906;DHT22;11117;48.644;9.006;2023-10-13T08:54:17;20.90;98.50
21906;DHT22;11117;48.644;9.006;2023-10-13T08:56:43;21.00;98.90
21906;DHT22;11117;48.644;9.006;2023-10-13T08:59:08;21.10;99.20
21906;DHT22;11117;48.644;9.006;2023-10-13T09:01:35;21.20;97.80
21906;DHT22;11117;48.644;9.006;2023-10-13T09:04:06;21.30;99.40
21906;DHT22;11117;48.644;9.006;2023-10-13T09:06:31;21.50;97.80
21906;DHT22;11117;48.644;9.006;2023-10-13T09:09:06;21.60;97.80
21906;DHT22;11117;48.644;9.006;2023-10-13T09:11:34;21.70;97.30
21906;DHT22;11117;48.644;9.006;2023-10-13T09:14:00;21.70;98.20
21906;DHT22;11117;48.644;9.006;2023-10-13T09:16:25;21.80;96.50
21906;DHT22;11117;48.644;9.006;2023-10-13T09:18:51;21.80;98.20
21906;DHT22;11117;48.644;9.006;2023-10-13T09:21:16;21.90;97.90
21906;DHT22;11117;48.644;9.006;2023-10-13T09:23:46;22.00;97.00
21906;DHT22;11117;48.644;9.006;2023-10-13T09:26:11;22.10;97.20
21906;DHT22;11117;48.644;9.006;2023-10-13T09:28:37;22.20;96.50
21906;DHT22;11117;48.644;9.006;2023-10-13T09:31:03;22.30;96.40
21906;DHT22;11117;48.644;9.006;2023-10-13T09:33:31;22.40;94.70
21906;DHT22;11117;48.644;9.006;2023-10-13T09:35:57;22.40;94.70
21906;DHT22;11117;48.644;9.006;2023-10-13T09:38:23;22.60;94.50
21906;DHT22;11117;48.644;9.006;2023-10-13T09:40:48;22.60;93.90
21906;DHT22;11117;48.644;9.006;2023-10-13T09:43:14;22.70;92.60
21906;DHT22;11117;48.644;9.006;2023-10-13T09:45:39;22.80;92.60
21906;DHT22;11117;48.644;9.006;2023-10-13T09:48:10;22.90;94.30
21906;DHT22;11117;48.644;9.006;2023-10-13T09:50:37;23.00;93.00
21906;DHT22;11117;48.644;9.006;2023-10-13T09:53:05;23.10;92.20
21906;DHT22;11117;48.644;9.006;2023-10-13T09:55:36;23.20;93.00
21906;DHT22;11117;48.644;9.006;2023-10-13T09:58:07;23.30;91.10
21906;DHT22;11117;48.644;9.006;2023-10-13T10:00:34;23.40;91.60
21906;DHT22;11117;48.644;9.006;2023-10-13T10:02:59;23.50;92.80
21906;DHT22;11117;48.644;9.006;2023-10-13T10:05:25;23.50;92.00
21906;DHT22;11117;48.644;9.006;2023-10-13T10:07:55;23.60;91.30
21906;DHT22;11117;48.644;9.006;2023-10-13T10:10:22;23.80;91.30
21906;DHT22;11117;48.644;9.006;2023-10-13T10:13:05;23.90;91.40
21906;DHT22;11117;48.644;9.006;2023-10-13T10:15:35;24.00;90.80
21906;DHT22;11117;48.644;9.006;2023-10-13T10:18:01;24.20;89.20
21906;DHT22;11117;48.644;9.006;2023-10-13T10:20:35;24.30;90.50
21906;DHT22;11117;48.644;9.006;2023-10-13T10:23:01;24.30;88.70
21906;DHT22;11117;48.644;9.006;2023-10-13T10:25:34;24.40;90.00
21906;DHT22;11117;48.644;9.006;2023-10-13T10:28:03;24.40;88.90
21906;DHT22;11117;48.644;9.006;2023-10-13T10:30:31;24.50;89.30
21906;DHT22;11117;48.644;9.006;2023-10-13T10:32:57;24.60;90.50
21906;DHT22;11117;48.644;9.006;2023-10-13T10:35:23;24.70;88.30
21906;DHT22;11117;48.644;9.006;2023-10-13T10:37:49;24.80;87.90
21906;DHT22;11117;48.644;9.006;2023-10-13T10:40:19;24.80;87.60
21906;DHT22;11117;48.644;9.006;2023-10-13T10:42:51;24.70;89.70
21906;DHT22;11117;48.644;9.006;2023-10-13T10:45:19;24.80;86.40
21906;DHT22;11117;48.644;9.006;2023-10-13T10:47:48;24.80;86.60
21906;DHT22;11117;48.644;9.006;2023-10-13T10:50:24;24.70;84.70
21906;DHT22;11117;48.644;9.006;2023-10-13T10:52:50;24.60;87.40
21906;DHT22;11117;48.644;9.006;2023-10-13T10:55:20;24.60;87.60
21906;DHT22;11117;48.644;9.006;2023-10-13T10:57:45;24.60;85.60
21906;DHT22;11117;48.644;9.006;2023-10-13T11:00:21;24.60;85.80
21906;DHT22;11117;48.644;9.006;2023-10-13T11:02:58;24.60;85.80
21906;DHT22;11117;48.644;9.006;2023-10-13T11:05:24;24.70;85.60
21906;DHT22;11117;48.644;9.006;2023-10-13T11:07:50;24.80;86.00
21906;DHT22;11117;48.644;9.006;2023-10-13T11:10:20;24.80;87.30
21906;DHT22;11117;48.644;9.006;2023-10-13T11:12:58;24.80;86.20
21906;DHT22;11117;48.644;9.006;2023-10-13T11:15:25;24.80;85.10
21906;DHT22;11117;48.644;9.006;2023-10-13T11:17:51;24.80;86.00
21906;DHT22;11117;48.644;9.006;2023-10-13T11:20:21;24.80;84.50
21906;DHT22;11117;48.644;9.006;2023-10-13T11:22:47;24.80;83.90
21906;DHT22;11117;48.644;9.006;2023-10-13T11:25:21;24.90;86.40
21906;DHT22;11117;48.644;9.006;2023-10-13T11:27:47;25.00;85.10
21906;DHT22;11117;48.644;9.006;2023-10-13T11:30:16;25.00;85.00
21906;DHT22;11117;48.644;9.006;2023-10-13T11:32:42;25.10;84.30
21906;DHT22;11117;48.644;9.006;2023-10-13T11:35:09;25.10;83.70
21906;DHT22;11117;48.644;9.006;2023-10-13T11:37:34;25.20;84.20
21906;DHT22;11117;48.644;9.006;2023-10-13T11:40:00;25.20;82.20
21906;DHT22;11117;48.644;9.006;2023-10-13T11:42:25;25.30;83.10
21906;DHT22;11117;48.644;9.006;2023-10-13T11:44:51;25.30;82.40
21906;DHT22;11117;48.644;9.006;2023-10-13T11:47:17;25.40;85.20
21906;DHT22;11117;48.644;9.006;2023-10-13T11:49:42;25.50;84.20
21906;DHT22;11117;48.644;9.006;2023-10-13T11:52:08;25.50;81.30
21906;DHT22;11117;48.644;9.006;2023-10-13T11:54:33;25.60;81.20
21906;DHT22;11117;48.644;9.006;2023-10-13T11:56:59;25.60;80.10
21906;DHT22;11117;48.644;9.006;2023-10-13T11:59:24;25.60;79.70
21906;DHT22;11117;48.644;9.006;2023-10-13T12:01:51;25.60;79.70
21906;DHT22;11117;48.644;9.006;2023-10-13T12:04:17;25.60;78.50
21906;DHT22;11117;48.644;9.006;2023-10-13T12:06:42;25.60;79.90
21906;DHT22;11117;48.644;9.006;2023-10-13T12:09:09;25.70;79.70
21906;DHT22;11117;48.644;9.006;2023-10-13T12:11:35;25.70;80.00
21906;DHT22;11117;48.644;9.006;2023-10-13T12:14:00;25.70;78.20
21906;DHT22;11117;48.644;9.006;2023-10-13T12:16:26;25.70;79.40
21906;DHT22;11117;48.644;9.006;2023-10-13T12:18:51;25.80;79.10
21906;DHT22;11117;48.644;9.006;2023-10-13T12:21:17;25.90;79.50
21906;DHT22;11117;48.644;9.006;2023-10-13T12:23:42;25.90;79.60
21906;DHT22;11117;48.644;9.006;2023-10-13T12:26:08;26.00;79.90
21906;DHT22;11117;48.644;9.006;2023-10-13T12:28:34;26.00;80.30
21906;DHT22;11117;48.644;9.006;2023-10-13T12:31:04;26.00;80.40
21906;DHT22;11117;48.644;9.006;2023-10-13T12:33:29;26.10;78.80
21906;DHT22;11117;48.644;9.006;2023-10-13T12:35:59;26.10;80.10
21906;DHT22;11117;48.644;9.006;2023-10-13T12:38:24;26.10;78.00
21906;DHT22;11117;48.644;9.006;2023-10-13T12:40:50;26.10;78.70
21906;DHT22;11117;48.644;9.006;2023-10-13T12:43:16;26.20;80.80
21906;DHT22;11117;48.644;9.006;2023-10-13T12:45:45;26.20;77.60
21906;DHT22;11117;48.644;9.006;2023-10-13T12:48:11;26.30;76.60
21906;DHT22;11117;48.644;9.006;2023-10-13T12:50:37;26.30;76.40
21906;DHT22;11117;48.644;9.006;2023-10-13T12:53:02;26.30;78.00
21906;DHT22;11117;48.644;9.006;2023-10-13T12:55:28;26.40;74.80
21906;DHT22;11117;48.644;9.006;2023-10-13T12:57:53;26.40;74.70
21906;DHT22;11117;48.644;9.006;2023-10-13T13:00:22;26.40;74.30
21906;DHT22;11117;48.644;9.006;2023-10-13T13:02:48;26.40;74.70
21906;DHT22;11117;48.644;9.006;2023-10-13T13:05:13;26.50;73.50
21906;DHT22;11117;48.644;9.006;2023-10-13T13:07:39;26.40;72.30
21906;DHT22;11117;48.644;9.006;2023-10-13T13:10:05;26.50;72.50
21906;DHT22;11117;48.644;9.006;2023-10-13T13:12:31;26.50;73.80
21906;DHT22;11117;48.644;9.006;2023-10-13T13:14:57;26.50;72.80
21906;DHT22;11117;48.644;9.006;2023-10-13T13:17:22;26.50;74.30
21906;DHT22;11117;48.644;9.006;2023-10-13T13:19:48;26.50;72.70
21906;DHT22;11117;48.644;9.006;2023-10-13T13:22:13;26.50;72.00
21906;DHT22;11117;48.644;9.006;2023-10-13T13:24:43;26.50;73.10
21906;DHT22;11117;48.644;9.006;2023-10-13T13:27:14;26.50;72.70
21906;DHT22;11117;48.644;9.006;2023-10-13T13:29:45;26.50;71.40
21906;DHT22;11117;48.644;9.006;2023-10-13T13:32:11;26.50;73.00
21906;DHT22;11117;48.644;9.006;2023-10-13T13:34:37;26.50;73.90
21906;DHT22;11117;48.644;9.006;2023-10-13T13:37:02;26.50;72.60
21906;DHT22;11117;48.644;9.006;2023-10-13T13:39:28;26.60;72.10
21906;DHT22;11117;48.644;9.006;2023-10-13T13:41:54;26.50;68.60
21906;DHT22;11117;48.644;9.006;2023-10-13T13:44:19;26.50;70.20
21906;DHT22;11117;48.644;9.006;2023-10-13T13:46:45;26.50;70.20
21906;DHT22;11117;48.644;9.006;2023-10-13T13:49:10;26.50;69.30
21906;DHT22;11117;48.644;9.006;2023-10-13T13:51:36;26.50;70.30
21906;DHT22;11117;48.644;9.006;2023-10-13T13:54:01;26.50;69.80
21906;DHT22;11117;48.644;9.006;2023-10-13T13:56:27;26.50;69.80
21906;DHT22;11117;48.644;9.006;2023-10-13T13:58:53;26.40;68.90
21906;DHT22;11117;48.644;9.006;2023-10-13T14:01:18;26.30;68.10
21906;DHT22;11117;48.644;9.006;2023-10-13T14:03:46;26.40;68.40
21906;DHT22;11117;48.644;9.006;2023-10-13T14:06:16;26.30;68.20
21906;DHT22;11117;48.644;9.006;2023-10-13T14:08:42;26.30;68.10
21906;DHT22;11117;48.644;9.006;2023-10-13T14:11:08;26.30;68.90
21906;DHT22;11117;48.644;9.006;2023-10-13T14:13:33;26.30;67.60
21906;DHT22;11117;48.644;9.006;2023-10-13T14:15:59;26.30;68.50
21906;DHT22;11117;48.644;9.006;2023-10-13T14:18:24;26.30;68.70
21906;DHT22;11117;48.644;9.006;2023-10-13T14:20:50;26.30;69.70
21906;DHT22;11117;48.644;9.006;2023-10-13T14:23:15;26.20;66.90
21906;DHT22;11117;48.644;9.006;2023-10-13T14:25:41;26.20;66.60
21906;DHT22;11117;48.644;9.006;2023-10-13T14:28:06;26.20;65.50
21906;DHT22;11117;48.644;9.006;2023-10-13T14:30:32;26.10;66.60
21906;DHT22;11117;48.644;9.006;2023-10-13T14:32:58;26.10;69.10
21906;DHT22;11117;48.644;9.006;2023-10-13T14:35:24;26.10;66.80
21906;DHT22;11117;48.644;9.006;2023-10-13T14:37:50;26.00;68.70
21906;DHT22;11117;48.644;9.006;2023-10-13T14:40:19;26.00;66.80
21906;DHT22;11117;48.644;9.006;2023-10-13T14:42:45;26.00;69.90
21906;DHT22;11117;48.644;9.006;2023-10-13T14:45:10;26.00;66.10
21906;DHT22;11117;48.644;9.006;2023-10-13T14:47:36;25.90;66.50
21906;DHT22;11117;48.644;9.006;2023-10-13T14:50:01;25.90;65.80
21906;DHT22;11117;48.644;9.006;2023-10-13T14:52:27;25.80;65.70
21906;DHT22;11117;48.644;9.006;2023-10-13T14:54:52;25.80;65.50
21906;DHT22;11117;48.644;9.006;2023-10-13T14:57:18;25.80;66.60
21906;DHT22;11117;48.644;9.006;2023-10-13T14:59:43;25.70;64.90
21906;DHT22;11117;48.644;9.006;2023-10-13T15:02:09;25.70;66.00
21906;DHT22;11117;48.644;9.006;2023-10-13T15:04:34;25.60;66.20
21906;DHT22;11117;48.644;9.006;2023-10-13T15:07:01;25.60;66.30
21906;DHT22;11117;48.644;9.006;2023-10-13T15:09:29;25.50;66.70
21906;DHT22;11117;48.644;9.006;2023-10-13T15:11:54;25.50;63.40
21906;DHT22;11117;48.644;9.006;2023-10-13T15:14:20;25.40;64.70
21906;DHT22;11117;48.644;9.006;2023-10-13T15:16:46;25.30;64.70
21906;DHT22;11117;48.644;9.006;2023-10-13T15:19:12;25.30;64.00
21906;DHT22;11117;48.644;9.006;2023-10-13T15:21:38;25.30;64.00
21906;DHT22;11117;48.644;9.006;2023-10-13T15:24:04;25.20;65.20